Предлагаем Вашему вниманию английскую версию страницы: AUTOTAF.ME 14445 - aviation weather forecast Split

AUTOTAF 14445 - авиапрогноз Split

Сегодня рассвет 05:46 UTC, восход солнца 06:17 UTC,
местный полдень 11:06 UTC, заход солнца 15:56 UTC,
наступление темноты 16:27 UTC.

Краткий прогноз 14445 на 9 часов

AUTOTAF.ME 14445 252000Z 2521/2606 30005MPS 9999 -SHRA BKN010CB    
  BECMG 2522/2600 VRB02MPS  
  FM260300 05005MPS 9999 VCSH BKN010CB 
  FM260600 04011G16MPS 9999 VCSH BKN030CB

Детальный прогноз 14445 на 24 часа

AUTOTAF.ME 14445 252000Z 2521/2621 30005MPS 9999 -SHRA BKN010CB TX08/2521Z TN05/2618Z  
  BECMG 2522/2600 VRB02MPS  
  FM260300 05005MPS 9999 VCSH BKN010CB 
  FM260600 04011G16MPS 9999 VCSH BKN030CB 
  FM260900 03011G18MPS 9999 BKN075 
  BECMG 2610/2612 01008G16MPS   
  FM261800 35004MPS 9999 SKC

Подробный табличный прогноз

Время (UTC) miniAUTOTAF на 3 ч WX FZLVL
M AGL
ICE TURB Т
(°С)
Тd
(°С)
f(%) QNH
(гПа)
WIND/T
18 25003MPS 5000 -SHRA BKN009 BKN010CB -SHRA 1050 MOD FL70/FL110 MOD SFC/FL40 9 7 87 999 ...
21 30005MPS 9999 -SHRA BKN010CB -SHRA 1050 MOD FL110/FL150 8 5 82 1002 ...
26.01.2021
00 VRB02MPS 9999 -SHRA BKN010CB -SHRA 900 FBL FL50/FL60 MOD FL40/FL50 7 4 81 1003 ...
03 05005MPS 9999 VCSH BKN010CB VCSH 720 MOD FL70/FL80 6 3 78 1005 ...
06 04011G16MPS 9999 VCSH BKN030CB VCSH 540 MOD FL90/FL150 MOD FL110/FL120 6 -1 59 1008 ...
09 03011G18MPS 9999 BKN075 540 MOD SFC/FL150 6 -2 57 1011 ...
12 01008G16MPS 9999 FEW041 600 MOD SFC/FL170 7 -1 58 1011 ...
15 01007G14MPS 9999 FEW042 540 MOD SFC/FL170 6 -2 57 1012 ...
18 35004MPS 9999 SKC 210 MOD FL40/FL170 5 -3 54 1014 ...
21 35003MPS 9999 SKC 70 MOD FL40/FL170 5 -3 59 1015 ...
27.01.2021
00 36004MPS 9999 SKC 130 MOD FL50/FL150 4 -1 69 1015 ...
03 01004MPS 9999 SKC 180 MOD FL40/FL50 3 -2 70 1015 ...
06 01004MPS 9999 SKC 180 MOD FL40/FL50 4 -2 66 1015 ...
09 01010G19MPS 9999 SKC 420 MOD SFC/FL40 5 -1 66 1016 ...
12 01007G14MPS 9999 SKC 540 MOD SFC/FL110 7 -4 46 1015 ...
15 34004MPS 9999 SKC 540 MOD SFC/FL50 7 -3 50 1015 ...


Широта 43.5°, долгота 16.4°, высота 128 м абс.
Средняя высота рельефа местности 238 м абс.
Прогнозы обновляются четыре раза в сутки: в 02, 08, 14, 20 ч всемирного времени.


Выбрать прогноз по другой модели Split
Онлайн-сводка гроз по Split (для РФ и ближнего зарубежья)
Карта фактических гроз в окрестностях Split
Динамические прогностические карты (ventusky.com)
Прогностическая карта высоты нижней границы облаков по Split (windy.com)
Выбрать другой город

Прогноз предназначен для личного научно-познавательного использования частными лицами
и не предназначен для принятия важных решений и выполнения реальных полётов воздушных судов

При копировании или ином использовании любых материалов данного сайта ссылка на © meteocenter.asia обязательна.

0.68/1.1